sensor_id;sensor_type;location;lat;lon;timestamp;temperature;humidity
78696;SHT31;68030;51.980;5.646;2023-09-19T00:00:27;18.3;66.4
78696;SHT31;68030;51.980;5.646;2023-09-19T00:02:57;18.3;66.7
78696;SHT31;68030;51.980;5.646;2023-09-19T00:05:28;18.3;66.7
78696;SHT31;68030;51.980;5.646;2023-09-19T00:07:58;18.4;66.8
78696;SHT31;68030;51.980;5.646;2023-09-19T00:10:27;18.4;67.0
78696;SHT31;68030;51.980;5.646;2023-09-19T00:12:58;18.4;66.9
78696;SHT31;68030;51.980;5.646;2023-09-19T00:15:27;18.4;67.1
78696;SHT31;68030;51.980;5.646;2023-09-19T00:17:56;18.4;67.0
78696;SHT31;68030;51.980;5.646;2023-09-19T00:20:25;18.4;67.1
78696;SHT31;68030;51.980;5.646;2023-09-19T00:22:56;18.4;67.1
78696;SHT31;68030;51.980;5.646;2023-09-19T00:25:30;18.4;66.9
78696;SHT31;68030;51.980;5.646;2023-09-19T00:28:02;18.4;66.9
78696;SHT31;68030;51.980;5.646;2023-09-19T00:30:31;18.4;67.2
78696;SHT31;68030;51.980;5.646;2023-09-19T00:32:59;18.4;67.3
78696;SHT31;68030;51.980;5.646;2023-09-19T00:35:34;18.5;67.5
78696;SHT31;68030;51.980;5.646;2023-09-19T00:38:03;18.5;67.3
78696;SHT31;68030;51.980;5.646;2023-09-19T00:40:33;18.5;67.5
78696;SHT31;68030;51.980;5.646;2023-09-19T00:43:03;18.5;67.7
78696;SHT31;68030;51.980;5.646;2023-09-19T00:45:32;18.5;68.0
78696;SHT31;68030;51.980;5.646;2023-09-19T00:48:02;18.5;67.8
78696;SHT31;68030;51.980;5.646;2023-09-19T00:50:38;18.5;68.0
78696;SHT31;68030;51.980;5.646;2023-09-19T00:53:14;18.5;67.9
78696;SHT31;68030;51.980;5.646;2023-09-19T00:55:45;18.6;68.0
78696;SHT31;68030;51.980;5.646;2023-09-19T00:58:14;18.6;67.9
78696;SHT31;68030;51.980;5.646;2023-09-19T01:00:46;18.6;68.1
78696;SHT31;68030;51.980;5.646;2023-09-19T01:03:18;18.6;68.3
78696;SHT31;68030;51.980;5.646;2023-09-19T01:05:47;18.6;68.4
78696;SHT31;68030;51.980;5.646;2023-09-19T01:08:16;18.6;68.1
78696;SHT31;68030;51.980;5.646;2023-09-19T01:10:55;18.6;68.1
78696;SHT31;68030;51.980;5.646;2023-09-19T01:13:30;18.6;68.0
78696;SHT31;68030;51.980;5.646;2023-09-19T01:16:09;18.6;67.7
78696;SHT31;68030;51.980;5.646;2023-09-19T01:18:49;18.6;67.7
78696;SHT31;68030;51.980;5.646;2023-09-19T01:21:26;18.6;67.7
78696;SHT31;68030;51.980;5.646;2023-09-19T01:24:22;18.6;68.0
78696;SHT31;68030;51.980;5.646;2023-09-19T01:27:21;18.6;67.3
78696;SHT31;68030;51.980;5.646;2023-09-19T01:29:52;18.6;67.1
78696;SHT31;68030;51.980;5.646;2023-09-19T01:32:23;18.6;66.4
78696;SHT31;68030;51.980;5.646;2023-09-19T01:34:55;18.6;65.6
78696;SHT31;68030;51.980;5.646;2023-09-19T01:37:31;18.6;65.3
78696;SHT31;68030;51.980;5.646;2023-09-19T01:40:03;18.6;64.6
78696;SHT31;68030;51.980;5.646;2023-09-19T01:42:41;18.6;64.5
78696;SHT31;68030;51.980;5.646;2023-09-19T01:45:13;18.6;64.1
78696;SHT31;68030;51.980;5.646;2023-09-19T01:47:51;18.6;63.9
78696;SHT31;68030;51.980;5.646;2023-09-19T01:50:32;18.6;63.8
78696;SHT31;68030;51.980;5.646;2023-09-19T01:53:07;18.6;63.6
78696;SHT31;68030;51.980;5.646;2023-09-19T01:55:46;18.6;63.3
78696;SHT31;68030;51.980;5.646;2023-09-19T01:58:20;18.6;63.1
78696;SHT31;68030;51.980;5.646;2023-09-19T02:00:52;18.5;63.3
78696;SHT31;68030;51.980;5.646;2023-09-19T02:03:22;18.5;63.0
78696;SHT31;68030;51.980;5.646;2023-09-19T02:05:54;18.5;63.2
78696;SHT31;68030;51.980;5.646;2023-09-19T02:08:23;18.5;63.4
78696;SHT31;68030;51.980;5.646;2023-09-19T02:10:52;18.4;63.4
78696;SHT31;68030;51.980;5.646;2023-09-19T02:13:23;18.4;63.2
78696;SHT31;68030;51.980;5.646;2023-09-19T02:15:54;18.3;62.8
78696;SHT31;68030;51.980;5.646;2023-09-19T02:18:23;18.3;63.1
78696;SHT31;68030;51.980;5.646;2023-09-19T02:20:54;18.3;63.2
78696;SHT31;68030;51.980;5.646;2023-09-19T02:23:25;18.2;62.9
78696;SHT31;68030;51.980;5.646;2023-09-19T02:25:57;18.2;62.4
78696;SHT31;68030;51.980;5.646;2023-09-19T02:28:27;18.2;62.3
78696;SHT31;68030;51.980;5.646;2023-09-19T02:30:59;18.1;62.3
78696;SHT31;68030;51.980;5.646;2023-09-19T02:33:30;18.1;62.1
78696;SHT31;68030;51.980;5.646;2023-09-19T02:35:59;18.1;62.0
78696;SHT31;68030;51.980;5.646;2023-09-19T02:38:30;18.0;61.8
78696;SHT31;68030;51.980;5.646;2023-09-19T02:41:00;18.0;61.5
78696;SHT31;68030;51.980;5.646;2023-09-19T02:43:31;17.9;61.8
78696;SHT31;68030;51.980;5.646;2023-09-19T02:46:03;17.9;61.6
78696;SHT31;68030;51.980;5.646;2023-09-19T02:48:31;17.9;61.4
78696;SHT31;68030;51.980;5.646;2023-09-19T02:51:01;17.9;61.1
78696;SHT31;68030;51.980;5.646;2023-09-19T02:53:30;17.8;61.1
78696;SHT31;68030;51.980;5.646;2023-09-19T02:55:59;17.8;60.9
78696;SHT31;68030;51.980;5.646;2023-09-19T02:58:30;17.8;60.7
78696;SHT31;68030;51.980;5.646;2023-09-19T03:01:11;17.7;60.5
78696;SHT31;68030;51.980;5.646;2023-09-19T03:03:40;17.7;60.7
78696;SHT31;68030;51.980;5.646;2023-09-19T03:06:09;17.7;60.4
78696;SHT31;68030;51.980;5.646;2023-09-19T03:08:40;17.6;60.3
78696;SHT31;68030;51.980;5.646;2023-09-19T03:11:09;17.6;60.2
78696;SHT31;68030;51.980;5.646;2023-09-19T03:13:39;17.6;60.1
78696;SHT31;68030;51.980;5.646;2023-09-19T03:16:08;17.6;60.0
78696;SHT31;68030;51.980;5.646;2023-09-19T03:18:37;17.5;59.8
78696;SHT31;68030;51.980;5.646;2023-09-19T03:21:08;17.5;60.1
78696;SHT31;68030;51.980;5.646;2023-09-19T03:23:38;17.5;59.9
78696;SHT31;68030;51.980;5.646;2023-09-19T03:26:07;17.5;59.6
78696;SHT31;68030;51.980;5.646;2023-09-19T03:28:36;17.4;59.8
78696;SHT31;68030;51.980;5.646;2023-09-19T03:31:06;17.4;59.9
78696;SHT31;68030;51.980;5.646;2023-09-19T03:33:36;17.4;59.8
78696;SHT31;68030;51.980;5.646;2023-09-19T03:36:07;17.4;59.4
78696;SHT31;68030;51.980;5.646;2023-09-19T03:38:36;17.4;59.7
78696;SHT31;68030;51.980;5.646;2023-09-19T03:41:04;17.4;59.7
78696;SHT31;68030;51.980;5.646;2023-09-19T03:43:33;17.3;59.5
78696;SHT31;68030;51.980;5.646;2023-09-19T03:46:03;17.3;59.7
78696;SHT31;68030;51.980;5.646;2023-09-19T03:48:34;17.3;59.3
78696;SHT31;68030;51.980;5.646;2023-09-19T03:51:03;17.3;59.7
78696;SHT31;68030;51.980;5.646;2023-09-19T03:53:33;17.3;59.4
78696;SHT31;68030;51.980;5.646;2023-09-19T03:56:02;17.3;59.2
78696;SHT31;68030;51.980;5.646;2023-09-19T03:58:31;17.3;59.1
78696;SHT31;68030;51.980;5.646;2023-09-19T04:01:01;17.3;59.0
78696;SHT31;68030;51.980;5.646;2023-09-19T04:03:29;17.2;58.9
78696;SHT31;68030;51.980;5.646;2023-09-19T04:06:01;17.2;59.1
78696;SHT31;68030;51.980;5.646;2023-09-19T04:08:31;17.2;58.5
78696;SHT31;68030;51.980;5.646;2023-09-19T04:11:00;17.2;58.7
78696;SHT31;68030;51.980;5.646;2023-09-19T04:13:30;17.2;58.9
78696;SHT31;68030;51.980;5.646;2023-09-19T04:15:59;17.2;58.9
78696;SHT31;68030;51.980;5.646;2023-09-19T04:18:30;17.1;58.5
78696;SHT31;68030;51.980;5.646;2023-09-19T04:21:00;17.1;59.0
78696;SHT31;68030;51.980;5.646;2023-09-19T04:23:32;17.1;59.3
78696;SHT31;68030;51.980;5.646;2023-09-19T04:26:00;17.1;59.2
78696;SHT31;68030;51.980;5.646;2023-09-19T04:28:30;17.1;59.4
78696;SHT31;68030;51.980;5.646;2023-09-19T04:31:00;17.1;59.5
78696;SHT31;68030;51.980;5.646;2023-09-19T04:33:29;17.1;59.5
78696;SHT31;68030;51.980;5.646;2023-09-19T04:36:01;17.1;59.6
78696;SHT31;68030;51.980;5.646;2023-09-19T04:38:33;17.1;59.6
78696;SHT31;68030;51.980;5.646;2023-09-19T04:41:03;17.1;59.6
78696;SHT31;68030;51.980;5.646;2023-09-19T04:43:33;17.1;59.4
78696;SHT31;68030;51.980;5.646;2023-09-19T04:46:02;17.0;59.8
78696;SHT31;68030;51.980;5.646;2023-09-19T04:48:32;17.0;59.8
78696;SHT31;68030;51.980;5.646;2023-09-19T04:51:02;17.0;60.0
78696;SHT31;68030;51.980;5.646;2023-09-19T04:53:31;17.0;60.0
78696;SHT31;68030;51.980;5.646;2023-09-19T04:56:02;17.0;60.0
78696;SHT31;68030;51.980;5.646;2023-09-19T04:58:33;17.0;59.9
78696;SHT31;68030;51.980;5.646;2023-09-19T05:01:02;17.0;60.1
78696;SHT31;68030;51.980;5.646;2023-09-19T05:03:31;17.0;60.2
78696;SHT31;68030;51.980;5.646;2023-09-19T05:06:00;17.0;60.2
78696;SHT31;68030;51.980;5.646;2023-09-19T05:08:29;17.0;60.4
78696;SHT31;68030;51.980;5.646;2023-09-19T05:10:58;17.0;60.7
78696;SHT31;68030;51.980;5.646;2023-09-19T05:13:27;17.0;60.5
78696;SHT31;68030;51.980;5.646;2023-09-19T05:15:59;17.0;60.6
78696;SHT31;68030;51.980;5.646;2023-09-19T05:18:29;17.0;60.9
78696;SHT31;68030;51.980;5.646;2023-09-19T05:20:58;17.0;61.0
78696;SHT31;68030;51.980;5.646;2023-09-19T05:23:30;17.0;61.2
78696;SHT31;68030;51.980;5.646;2023-09-19T05:26:01;17.0;61.0
78696;SHT31;68030;51.980;5.646;2023-09-19T05:28:30;17.0;61.2
78696;SHT31;68030;51.980;5.646;2023-09-19T05:31:02;17.0;61.0
78696;SHT31;68030;51.980;5.646;2023-09-19T05:33:32;17.1;61.2
78696;SHT31;68030;51.980;5.646;2023-09-19T05:36:01;17.1;61.4
78696;SHT31;68030;51.980;5.646;2023-09-19T05:38:29;17.1;61.5
78696;SHT31;68030;51.980;5.646;2023-09-19T05:40:59;17.1;61.6
78696;SHT31;68030;51.980;5.646;2023-09-19T05:43:28;17.1;61.7
78696;SHT31;68030;51.980;5.646;2023-09-19T05:45:59;17.1;61.9
78696;SHT31;68030;51.980;5.646;2023-09-19T05:48:29;17.1;61.8
78696;SHT31;68030;51.980;5.646;2023-09-19T05:50:59;17.2;61.8
78696;SHT31;68030;51.980;5.646;2023-09-19T05:53:29;17.2;61.6
78696;SHT31;68030;51.980;5.646;2023-09-19T05:55:59;17.2;61.6
78696;SHT31;68030;51.980;5.646;2023-09-19T05:58:28;17.2;61.7
78696;SHT31;68030;51.980;5.646;2023-09-19T06:00:56;17.2;61.8
78696;SHT31;68030;51.980;5.646;2023-09-19T06:03:25;17.3;62.0
78696;SHT31;68030;51.980;5.646;2023-09-19T06:05:55;17.3;62.1
78696;SHT31;68030;51.980;5.646;2023-09-19T06:08:24;17.3;62.4
78696;SHT31;68030;51.980;5.646;2023-09-19T06:10:55;17.3;62.3
78696;SHT31;68030;51.980;5.646;2023-09-19T06:13:23;17.3;62.2
78696;SHT31;68030;51.980;5.646;2023-09-19T06:15:53;17.3;62.3
78696;SHT31;68030;51.980;5.646;2023-09-19T06:18:22;17.4;62.6
78696;SHT31;68030;51.980;5.646;2023-09-19T06:20:52;17.4;62.9
78696;SHT31;68030;51.980;5.646;2023-09-19T06:23:22;17.4;62.9
78696;SHT31;68030;51.980;5.646;2023-09-19T06:25:53;17.4;62.9
78696;SHT31;68030;51.980;5.646;2023-09-19T06:28:22;17.4;63.0
78696;SHT31;68030;51.980;5.646;2023-09-19T06:30:52;17.5;63.1
78696;SHT31;68030;51.980;5.646;2023-09-19T06:33:20;17.5;63.3
78696;SHT31;68030;51.980;5.646;2023-09-19T06:35:51;17.5;63.5
78696;SHT31;68030;51.980;5.646;2023-09-19T06:38:25;17.5;63.4
78696;SHT31;68030;51.980;5.646;2023-09-19T06:40:56;17.6;63.3
78696;SHT31;68030;51.980;5.646;2023-09-19T06:43:27;17.6;63.6
78696;SHT31;68030;51.980;5.646;2023-09-19T06:45:57;17.6;63.6
78696;SHT31;68030;51.980;5.646;2023-09-19T06:48:26;17.7;63.5
78696;SHT31;68030;51.980;5.646;2023-09-19T06:50:56;17.7;63.6
78696;SHT31;68030;51.980;5.646;2023-09-19T06:53:31;17.8;63.5
78696;SHT31;68030;51.980;5.646;2023-09-19T06:56:01;17.8;63.7
78696;SHT31;68030;51.980;5.646;2023-09-19T06:58:33;17.8;63.6
78696;SHT31;68030;51.980;5.646;2023-09-19T07:01:03;17.9;63.3
78696;SHT31;68030;51.980;5.646;2023-09-19T07:03:32;17.9;63.3
78696;SHT31;68030;51.980;5.646;2023-09-19T07:06:00;17.9;63.5
78696;SHT31;68030;51.980;5.646;2023-09-19T07:08:31;18.0;63.4
78696;SHT31;68030;51.980;5.646;2023-09-19T07:10:59;18.0;63.0
78696;SHT31;68030;51.980;5.646;2023-09-19T07:13:28;18.0;63.2
78696;SHT31;68030;51.980;5.646;2023-09-19T07:15:58;18.1;63.0
78696;SHT31;68030;51.980;5.646;2023-09-19T07:18:27;18.1;62.9
78696;SHT31;68030;51.980;5.646;2023-09-19T07:20:58;18.1;62.7
78696;SHT31;68030;51.980;5.646;2023-09-19T07:23:33;18.2;62.9
78696;SHT31;68030;51.980;5.646;2023-09-19T07:26:02;18.2;63.2
78696;SHT31;68030;51.980;5.646;2023-09-19T07:28:31;18.2;62.7
78696;SHT31;68030;51.980;5.646;2023-09-19T07:31:03;18.3;62.8
78696;SHT31;68030;51.980;5.646;2023-09-19T07:33:33;18.3;62.6
78696;SHT31;68030;51.980;5.646;2023-09-19T07:36:03;18.4;62.6
78696;SHT31;68030;51.980;5.646;2023-09-19T07:38:32;18.4;62.6
78696;SHT31;68030;51.980;5.646;2023-09-19T07:41:02;18.5;63.0
78696;SHT31;68030;51.980;5.646;2023-09-19T07:43:31;18.5;62.3
78696;SHT31;68030;51.980;5.646;2023-09-19T07:46:02;18.6;62.7
78696;SHT31;68030;51.980;5.646;2023-09-19T07:48:33;18.6;62.4
78696;SHT31;68030;51.980;5.646;2023-09-19T07:51:05;18.6;61.9
78696;SHT31;68030;51.980;5.646;2023-09-19T07:53:36;18.7;62.3
78696;SHT31;68030;51.980;5.646;2023-09-19T07:56:07;18.7;62.2
78696;SHT31;68030;51.980;5.646;2023-09-19T07:58:39;18.8;62.1
78696;SHT31;68030;51.980;5.646;2023-09-19T08:01:11;18.8;61.8
78696;SHT31;68030;51.980;5.646;2023-09-19T08:03:40;18.9;61.5
78696;SHT31;68030;51.980;5.646;2023-09-19T08:06:10;18.9;62.3
78696;SHT31;68030;51.980;5.646;2023-09-19T08:08:40;19.0;61.6
78696;SHT31;68030;51.980;5.646;2023-09-19T08:11:10;19.0;60.9
78696;SHT31;68030;51.980;5.646;2023-09-19T08:13:39;19.1;60.8
78696;SHT31;68030;51.980;5.646;2023-09-19T08:16:11;19.1;60.7
78696;SHT31;68030;51.980;5.646;2023-09-19T08:18:41;19.1;61.0
78696;SHT31;68030;51.980;5.646;2023-09-19T08:21:11;19.2;61.0
78696;SHT31;68030;51.980;5.646;2023-09-19T08:23:42;19.2;61.2
78696;SHT31;68030;51.980;5.646;2023-09-19T08:26:11;19.3;60.9
78696;SHT31;68030;51.980;5.646;2023-09-19T08:28:39;19.3;61.6
78696;SHT31;68030;51.980;5.646;2023-09-19T08:31:08;19.4;61.3
78696;SHT31;68030;51.980;5.646;2023-09-19T08:33:37;19.5;60.7
78696;SHT31;68030;51.980;5.646;2023-09-19T08:36:07;19.5;60.5
78696;SHT31;68030;51.980;5.646;2023-09-19T08:38:36;19.6;60.3
78696;SHT31;68030;51.980;5.646;2023-09-19T08:41:08;19.6;60.4
78696;SHT31;68030;51.980;5.646;2023-09-19T08:43:36;19.7;60.2
78696;SHT31;68030;51.980;5.646;2023-09-19T08:46:10;19.8;60.4
78696;SHT31;68030;51.980;5.646;2023-09-19T08:48:45;19.8;60.1
78696;SHT31;68030;51.980;5.646;2023-09-19T08:51:25;19.9;59.0
78696;SHT31;68030;51.980;5.646;2023-09-19T08:54:05;20.0;59.7
78696;SHT31;68030;51.980;5.646;2023-09-19T08:56:39;20.0;59.7
78696;SHT31;68030;51.980;5.646;2023-09-19T08:59:10;20.1;59.0
78696;SHT31;68030;51.980;5.646;2023-09-19T09:01:40;20.1;58.5
78696;SHT31;68030;51.980;5.646;2023-09-19T09:04:09;20.2;58.3
78696;SHT31;68030;51.980;5.646;2023-09-19T09:06:41;20.2;58.2
78696;SHT31;68030;51.980;5.646;2023-09-19T09:09:15;20.3;58.9
78696;SHT31;68030;51.980;5.646;2023-09-19T09:11:43;20.3;57.8
78696;SHT31;68030;51.980;5.646;2023-09-19T09:14:14;20.4;57.0
78696;SHT31;68030;51.980;5.646;2023-09-19T09:16:42;20.4;56.6
78696;SHT31;68030;51.980;5.646;2023-09-19T09:19:11;20.5;55.9
78696;SHT31;68030;51.980;5.646;2023-09-19T09:21:42;20.5;56.9
78696;SHT31;68030;51.980;5.646;2023-09-19T09:24:30;20.6;55.3
78696;SHT31;68030;51.980;5.646;2023-09-19T09:27:02;20.6;54.5
78696;SHT31;68030;51.980;5.646;2023-09-19T09:29:53;20.7;54.2
78696;SHT31;68030;51.980;5.646;2023-09-19T09:32:26;20.7;54.0
78696;SHT31;68030;51.980;5.646;2023-09-19T09:34:57;20.8;54.8
78696;SHT31;68030;51.980;5.646;2023-09-19T09:37:27;20.8;54.4
78696;SHT31;68030;51.980;5.646;2023-09-19T09:39:59;20.9;53.7
78696;SHT31;68030;51.980;5.646;2023-09-19T09:42:36;21.0;54.5
78696;SHT31;68030;51.980;5.646;2023-09-19T09:45:15;21.0;53.9
78696;SHT31;68030;51.980;5.646;2023-09-19T09:47:48;21.1;54.0
78696;SHT31;68030;51.980;5.646;2023-09-19T09:50:27;21.1;54.5
78696;SHT31;68030;51.980;5.646;2023-09-19T09:53:22;21.2;54.8
78696;SHT31;68030;51.980;5.646;2023-09-19T09:56:03;21.2;52.9
78696;SHT31;68030;51.980;5.646;2023-09-19T09:58:36;21.3;53.7
78696;SHT31;68030;51.980;5.646;2023-09-19T10:01:07;21.3;54.3
78696;SHT31;68030;51.980;5.646;2023-09-19T10:03:42;21.4;53.5
78696;SHT31;68030;51.980;5.646;2023-09-19T10:06:15;21.4;54.2
78696;SHT31;68030;51.980;5.646;2023-09-19T10:09:12;21.5;53.6
78696;SHT31;68030;51.980;5.646;2023-09-19T10:11:47;21.5;52.8
78696;SHT31;68030;51.980;5.646;2023-09-19T10:14:25;21.6;53.2
78696;SHT31;68030;51.980;5.646;2023-09-19T10:16:59;21.6;53.5
78696;SHT31;68030;51.980;5.646;2023-09-19T10:19:42;21.7;53.3
78696;SHT31;68030;51.980;5.646;2023-09-19T10:22:14;21.7;53.3
78696;SHT31;68030;51.980;5.646;2023-09-19T10:24:47;21.8;53.7
78696;SHT31;68030;51.980;5.646;2023-09-19T10:27:19;21.9;53.3
78696;SHT31;68030;51.980;5.646;2023-09-19T10:29:49;22.0;53.5
78696;SHT31;68030;51.980;5.646;2023-09-19T10:32:22;22.0;52.3
78696;SHT31;68030;51.980;5.646;2023-09-19T10:34:51;22.1;52.5
78696;SHT31;68030;51.980;5.646;2023-09-19T10:37:24;22.1;52.3
78696;SHT31;68030;51.980;5.646;2023-09-19T10:39:57;22.2;51.8
78696;SHT31;68030;51.980;5.646;2023-09-19T10:42:27;22.3;51.9
78696;SHT31;68030;51.980;5.646;2023-09-19T10:45:00;22.4;51.3
78696;SHT31;68030;51.980;5.646;2023-09-19T10:47:34;22.4;51.0
78696;SHT31;68030;51.980;5.646;2023-09-19T10:50:09;22.5;51.6
78696;SHT31;68030;51.980;5.646;2023-09-19T10:52:42;22.5;52.9
78696;SHT31;68030;51.980;5.646;2023-09-19T10:55:17;22.5;51.6
78696;SHT31;68030;51.980;5.646;2023-09-19T10:57:46;22.6;51.5
78696;SHT31;68030;51.980;5.646;2023-09-19T11:00:16;22.6;50.7
78696;SHT31;68030;51.980;5.646;2023-09-19T11:03:19;22.7;51.5
78696;SHT31;68030;51.980;5.646;2023-09-19T11:06:04;22.8;50.6
78696;SHT31;68030;51.980;5.646;2023-09-19T11:08:56;22.9;50.3
78696;SHT31;68030;51.980;5.646;2023-09-19T11:11:50;23.0;50.0
78696;SHT31;68030;51.980;5.646;2023-09-19T11:14:41;23.0;50.2
78696;SHT31;68030;51.980;5.646;2023-09-19T11:17:33;23.0;50.6
78696;SHT31;68030;51.980;5.646;2023-09-19T11:20:22;23.1;50.5
78696;SHT31;68030;51.980;5.646;2023-09-19T11:23:20;23.1;49.5
78696;SHT31;68030;51.980;5.646;2023-09-19T11:25:53;23.1;49.4
78696;SHT31;68030;51.980;5.646;2023-09-19T11:28:33;23.2;49.7
78696;SHT31;68030;51.980;5.646;2023-09-19T11:31:44;23.2;48.7
78696;SHT31;68030;51.980;5.646;2023-09-19T11:34:39;23.2;48.8
78696;SHT31;68030;51.980;5.646;2023-09-19T11:38:00;23.2;48.7
78696;SHT31;68030;51.980;5.646;2023-09-19T11:40:34;23.3;48.5
78696;SHT31;68030;51.980;5.646;2023-09-19T11:46:07;23.3;49.2
78696;SHT31;68030;51.980;5.646;2023-09-19T11:48:38;23.3;49.0
78696;SHT31;68030;51.980;5.646;2023-09-19T11:51:16;23.3;48.4
78696;SHT31;68030;51.980;5.646;2023-09-19T11:53:54;23.4;48.0
78696;SHT31;68030;51.980;5.646;2023-09-19T11:56:25;23.4;47.5
78696;SHT31;68030;51.980;5.646;2023-09-19T11:58:55;23.5;47.3
78696;SHT31;68030;51.980;5.646;2023-09-19T12:01:29;23.5;47.4
78696;SHT31;68030;51.980;5.646;2023-09-19T12:04:01;23.5;47.6
78696;SHT31;68030;51.980;5.646;2023-09-19T12:06:31;23.5;48.0
78696;SHT31;68030;51.980;5.646;2023-09-19T12:09:01;23.5;48.1
78696;SHT31;68030;51.980;5.646;2023-09-19T12:11:42;23.5;46.7
78696;SHT31;68030;51.980;5.646;2023-09-19T12:14:11;23.5;46.3
78696;SHT31;68030;51.980;5.646;2023-09-19T12:16:40;23.5;46.9
78696;SHT31;68030;51.980;5.646;2023-09-19T12:19:51;23.5;46.4
78696;SHT31;68030;51.980;5.646;2023-09-19T12:22:20;23.5;46.6
78696;SHT31;68030;51.980;5.646;2023-09-19T12:24:49;23.5;46.7
78696;SHT31;68030;51.980;5.646;2023-09-19T12:27:21;23.4;47.0
78696;SHT31;68030;51.980;5.646;2023-09-19T12:29:53;23.4;46.6
78696;SHT31;68030;51.980;5.646;2023-09-19T12:32:36;23.4;46.6
78696;SHT31;68030;51.980;5.646;2023-09-19T12:35:07;23.3;46.8
78696;SHT31;68030;51.980;5.646;2023-09-19T12:37:44;23.2;46.8
78696;SHT31;68030;51.980;5.646;2023-09-19T12:40:16;23.2;47.2
78696;SHT31;68030;51.980;5.646;2023-09-19T12:42:49;23.1;47.8
78696;SHT31;68030;51.980;5.646;2023-09-19T12:45:20;23.1;48.5
78696;SHT31;68030;51.980;5.646;2023-09-19T12:48:20;23.0;48.4
78696;SHT31;68030;51.980;5.646;2023-09-19T12:51:05;23.0;48.8
78696;SHT31;68030;51.980;5.646;2023-09-19T12:53:38;23.0;48.5
78696;SHT31;68030;51.980;5.646;2023-09-19T12:56:10;22.9;48.8
78696;SHT31;68030;51.980;5.646;2023-09-19T12:58:56;22.9;49.2
78696;SHT31;68030;51.980;5.646;2023-09-19T13:01:29;22.9;49.7
78696;SHT31;68030;51.980;5.646;2023-09-19T13:04:18;22.8;49.7
78696;SHT31;68030;51.980;5.646;2023-09-19T13:06:52;22.8;49.8
78696;SHT31;68030;51.980;5.646;2023-09-19T13:09:22;22.8;50.1
78696;SHT31;68030;51.980;5.646;2023-09-19T13:11:58;22.8;50.2
78696;SHT31;68030;51.980;5.646;2023-09-19T13:14:31;22.8;50.0
78696;SHT31;68030;51.980;5.646;2023-09-19T13:17:06;22.7;49.9
78696;SHT31;68030;51.980;5.646;2023-09-19T13:19:43;22.7;50.0
78696;SHT31;68030;51.980;5.646;2023-09-19T13:22:38;22.7;50.1
78696;SHT31;68030;51.980;5.646;2023-09-19T13:25:09;22.7;50.4
78696;SHT31;68030;51.980;5.646;2023-09-19T13:27:41;22.6;50.5
78696;SHT31;68030;51.980;5.646;2023-09-19T13:30:11;22.6;51.0
78696;SHT31;68030;51.980;5.646;2023-09-19T13:32:41;22.6;51.0
78696;SHT31;68030;51.980;5.646;2023-09-19T13:35:10;22.5;50.5
78696;SHT31;68030;51.980;5.646;2023-09-19T13:37:41;22.5;50.9
78696;SHT31;68030;51.980;5.646;2023-09-19T13:40:14;22.5;51.0
78696;SHT31;68030;51.980;5.646;2023-09-19T13:42:43;22.5;51.3
78696;SHT31;68030;51.980;5.646;2023-09-19T13:45:12;22.4;51.2
78696;SHT31;68030;51.980;5.646;2023-09-19T13:47:44;22.4;51.6
78696;SHT31;68030;51.980;5.646;2023-09-19T13:50:12;22.4;51.6
78696;SHT31;68030;51.980;5.646;2023-09-19T13:52:43;22.4;51.4
78696;SHT31;68030;51.980;5.646;2023-09-19T13:55:13;22.4;51.8
78696;SHT31;68030;51.980;5.646;2023-09-19T13:57:46;22.4;51.4
78696;SHT31;68030;51.980;5.646;2023-09-19T14:00:17;22.5;51.2
78696;SHT31;68030;51.980;5.646;2023-09-19T14:02:45;22.5;51.7
78696;SHT31;68030;51.980;5.646;2023-09-19T14:05:16;22.6;51.4
78696;SHT31;68030;51.980;5.646;2023-09-19T14:07:46;22.6;51.5
78696;SHT31;68030;51.980;5.646;2023-09-19T14:10:15;22.7;51.3
78696;SHT31;68030;51.980;5.646;2023-09-19T14:12:45;22.7;51.3
78696;SHT31;68030;51.980;5.646;2023-09-19T14:15:14;22.7;51.5
78696;SHT31;68030;51.980;5.646;2023-09-19T14:17:44;22.8;51.8
78696;SHT31;68030;51.980;5.646;2023-09-19T14:20:13;22.8;51.1
78696;SHT31;68030;51.980;5.646;2023-09-19T14:22:42;22.9;49.9
78696;SHT31;68030;51.980;5.646;2023-09-19T14:25:13;22.9;50.1
78696;SHT31;68030;51.980;5.646;2023-09-19T14:27:41;22.9;50.2
78696;SHT31;68030;51.980;5.646;2023-09-19T14:30:11;23.0;50.0
78696;SHT31;68030;51.980;5.646;2023-09-19T14:32:40;23.0;49.7
78696;SHT31;68030;51.980;5.646;2023-09-19T14:35:09;22.9;50.1
78696;SHT31;68030;51.980;5.646;2023-09-19T14:37:41;22.9;49.7
78696;SHT31;68030;51.980;5.646;2023-09-19T14:40:10;22.9;49.6
78696;SHT31;68030;51.980;5.646;2023-09-19T14:42:42;22.9;50.1
78696;SHT31;68030;51.980;5.646;2023-09-19T14:45:12;22.9;50.6
78696;SHT31;68030;51.980;5.646;2023-09-19T14:47:43;22.8;50.5
78696;SHT31;68030;51.980;5.646;2023-09-19T14:50:12;22.8;50.8
78696;SHT31;68030;51.980;5.646;2023-09-19T14:52:41;22.8;50.5
78696;SHT31;68030;51.980;5.646;2023-09-19T14:55:10;22.8;50.8
78696;SHT31;68030;51.980;5.646;2023-09-19T14:57:41;22.8;51.0
78696;SHT31;68030;51.980;5.646;2023-09-19T15:00:14;22.8;50.9
78696;SHT31;68030;51.980;5.646;2023-09-19T15:02:43;22.7;50.6
78696;SHT31;68030;51.980;5.646;2023-09-19T15:05:15;22.7;51.2
78696;SHT31;68030;51.980;5.646;2023-09-19T15:07:43;22.7;51.4
78696;SHT31;68030;51.980;5.646;2023-09-19T15:10:12;22.7;51.3
78696;SHT31;68030;51.980;5.646;2023-09-19T15:12:40;22.6;51.5
78696;SHT31;68030;51.980;5.646;2023-09-19T15:15:10;22.6;51.4
78696;SHT31;68030;51.980;5.646;2023-09-19T15:17:41;22.6;51.7
78696;SHT31;68030;51.980;5.646;2023-09-19T15:20:11;22.6;51.6
78696;SHT31;68030;51.980;5.646;2023-09-19T15:22:42;22.5;51.8
78696;SHT31;68030;51.980;5.646;2023-09-19T15:25:12;22.5;51.7
78696;SHT31;68030;51.980;5.646;2023-09-19T15:27:42;22.5;51.8
78696;SHT31;68030;51.980;5.646;2023-09-19T15:30:12;22.5;51.7
78696;SHT31;68030;51.980;5.646;2023-09-19T15:32:42;22.5;51.7
78696;SHT31;68030;51.980;5.646;2023-09-19T15:35:10;22.4;51.5
78696;SHT31;68030;51.980;5.646;2023-09-19T15:37:40;22.4;51.7
78696;SHT31;68030;51.980;5.646;2023-09-19T15:40:10;22.4;52.0
78696;SHT31;68030;51.980;5.646;2023-09-19T15:42:40;22.3;52.4
78696;SHT31;68030;51.980;5.646;2023-09-19T15:45:12;22.3;52.5
78696;SHT31;68030;51.980;5.646;2023-09-19T15:47:42;22.3;52.1
78696;SHT31;68030;51.980;5.646;2023-09-19T15:50:11;22.3;52.1
78696;SHT31;68030;51.980;5.646;2023-09-19T15:52:42;22.3;52.1
78696;SHT31;68030;51.980;5.646;2023-09-19T15:55:11;22.3;51.9
78696;SHT31;68030;51.980;5.646;2023-09-19T15:57:41;22.2;52.2
78696;SHT31;68030;51.980;5.646;2023-09-19T16:00:12;22.2;52.2
78696;SHT31;68030;51.980;5.646;2023-09-19T16:02:45;22.2;52.1
78696;SHT31;68030;51.980;5.646;2023-09-19T16:05:14;22.2;52.4
78696;SHT31;68030;51.980;5.646;2023-09-19T16:07:42;22.2;52.9
78696;SHT31;68030;51.980;5.646;2023-09-19T16:10:12;22.1;53.0
78696;SHT31;68030;51.980;5.646;2023-09-19T16:12:42;22.1;53.2
78696;SHT31;68030;51.980;5.646;2023-09-19T16:15:13;22.1;54.1
78696;SHT31;68030;51.980;5.646;2023-09-19T16:17:42;22.1;53.9
78696;SHT31;68030;51.980;5.646;2023-09-19T16:20:12;22.1;53.8
78696;SHT31;68030;51.980;5.646;2023-09-19T16:22:45;22.1;53.5
78696;SHT31;68030;51.980;5.646;2023-09-19T16:25:14;22.1;54.0
78696;SHT31;68030;51.980;5.646;2023-09-19T16:27:43;22.1;54.4
78696;SHT31;68030;51.980;5.646;2023-09-19T16:30:12;22.0;53.6
78696;SHT31;68030;51.980;5.646;2023-09-19T16:32:42;22.0;53.6
78696;SHT31;68030;51.980;5.646;2023-09-19T16:35:11;22.0;53.5
78696;SHT31;68030;51.980;5.646;2023-09-19T16:37:39;22.0;53.6